createdAt,value
2023-05-17T00:00:19.387Z,602.00
2023-05-17T00:01:19.452Z,602.00
2023-05-17T00:02:19.358Z,601.00
2023-05-17T00:03:19.365Z,601.00
2023-05-17T00:04:19.353Z,601.00
2023-05-17T00:05:19.366Z,600.00
2023-05-17T00:06:19.449Z,601.00
2023-05-17T00:07:19.353Z,601.00
2023-05-17T00:08:19.368Z,601.00
2023-05-17T00:09:19.348Z,601.00
2023-05-17T00:10:19.359Z,601.00
2023-05-17T00:11:19.333Z,602.00
2023-05-17T00:12:19.384Z,602.00
2023-05-17T00:13:19.324Z,600.00
2023-05-17T00:14:19.314Z,601.00
2023-05-17T00:15:19.332Z,602.00
2023-05-17T00:16:19.311Z,603.00
2023-05-17T00:17:19.377Z,602.00
2023-05-17T00:18:19.442Z,603.00
2023-05-17T00:19:20.101Z,602.00
2023-05-17T00:20:19.354Z,602.00
2023-05-17T00:21:19.275Z,602.00
2023-05-17T00:22:19.316Z,604.00
2023-05-17T00:23:19.299Z,601.00
2023-05-17T00:24:19.281Z,602.00
2023-05-17T00:25:19.307Z,602.00
2023-05-17T00:26:19.285Z,605.00
2023-05-17T00:27:19.263Z,600.00
2023-05-17T00:28:19.282Z,603.00
2023-05-17T00:29:19.262Z,600.00
2023-05-17T00:30:19.266Z,604.00
2023-05-17T00:31:19.246Z,601.00
2023-05-17T00:32:19.245Z,603.00
2023-05-17T00:33:19.319Z,600.00
2023-05-17T00:34:19.252Z,601.00
2023-05-17T00:35:19.335Z,601.00
2023-05-17T00:36:19.249Z,601.00
2023-05-17T00:37:19.216Z,600.00
2023-05-17T00:38:19.223Z,602.00
2023-05-17T00:39:19.220Z,601.00
2023-05-17T00:40:19.193Z,600.00
2023-05-17T00:41:19.240Z,601.00
2023-05-17T00:42:19.220Z,602.00
2023-05-17T00:43:19.224Z,604.00
2023-05-17T00:44:19.217Z,604.00
2023-05-17T00:45:19.205Z,601.00
2023-05-17T00:46:19.223Z,602.00
2023-05-17T00:47:19.240Z,602.00
2023-05-17T00:48:19.266Z,603.00
2023-05-17T00:49:19.446Z,601.00
2023-05-17T00:50:19.189Z,601.00
2023-05-17T00:51:19.202Z,604.00
2023-05-17T00:52:19.191Z,602.00
2023-05-17T00:53:19.205Z,603.00
2023-05-17T00:54:19.191Z,601.00
2023-05-17T00:55:19.168Z,600.00
2023-05-17T00:56:19.279Z,602.00
2023-05-17T00:57:19.157Z,601.00
2023-05-17T00:58:19.190Z,601.00
2023-05-17T00:59:19.177Z,604.00
2023-05-17T01:00:19.159Z,601.00
2023-05-17T01:01:19.176Z,603.00
2023-05-17T01:02:19.174Z,601.00
2023-05-17T01:03:19.215Z,602.00
2023-05-17T01:04:19.300Z,603.00
2023-05-17T01:05:19.205Z,601.00
2023-05-17T01:06:19.129Z,604.00
2023-05-17T01:07:19.175Z,600.00
2023-05-17T01:08:19.163Z,602.00
2023-05-17T01:09:19.142Z,601.00
2023-05-17T01:10:19.152Z,602.00
2023-05-17T01:11:19.125Z,601.00
2023-05-17T01:12:19.099Z,600.00
2023-05-17T01:13:19.125Z,602.00
2023-05-17T01:14:19.128Z,600.00
2023-05-17T01:15:19.073Z,601.00
2023-05-17T01:16:19.083Z,601.00
2023-05-17T01:17:19.149Z,603.00
2023-05-17T01:18:19.175Z,600.00
2023-05-17T01:19:19.171Z,602.00
2023-05-17T01:20:19.169Z,601.00
2023-05-17T01:21:19.231Z,602.00
2023-05-17T01:22:19.103Z,600.00
2023-05-17T01:23:19.122Z,600.00
2023-05-17T01:24:19.082Z,601.00
2023-05-17T01:25:19.080Z,603.00
2023-05-17T01:26:19.126Z,601.00
2023-05-17T01:27:19.124Z,602.00
2023-05-17T01:28:19.096Z,601.00
2023-05-17T01:29:19.114Z,601.00
2023-05-17T01:30:19.070Z,602.00
2023-05-17T01:31:19.092Z,602.00
2023-05-17T01:32:19.104Z,601.00
2023-05-17T01:33:19.177Z,601.00
2023-05-17T01:34:19.080Z,603.00
2023-05-17T01:35:19.075Z,601.00
2023-05-17T01:36:19.069Z,600.00
2023-05-17T01:37:19.143Z,601.00
2023-05-17T01:38:19.043Z,600.00
2023-05-17T01:39:19.078Z,601.00
2023-05-17T01:40:19.053Z,601.00
2023-05-17T01:41:19.072Z,601.00
2023-05-17T01:42:19.053Z,600.00
2023-05-17T01:43:19.047Z,602.00
2023-05-17T01:44:19.031Z,601.00
2023-05-17T01:45:19.012Z,600.00
2023-05-17T01:46:19.025Z,600.00
2023-05-17T01:47:19.015Z,601.00
2023-05-17T01:48:19.115Z,604.00
2023-05-17T01:49:19.057Z,601.00
2023-05-17T01:50:19.035Z,600.00
2023-05-17T01:51:19.007Z,600.00
2023-05-17T01:52:19.036Z,600.00
2023-05-17T01:53:19.081Z,602.00
2023-05-17T01:54:19.053Z,602.00
2023-05-17T01:55:19.016Z,601.00
2023-05-17T01:56:19.008Z,603.00
2023-05-17T01:57:19.006Z,602.00
2023-05-17T01:58:19.012Z,601.00
2023-05-17T01:59:19.003Z,602.00
2023-05-17T02:00:19.000Z,600.00
2023-05-17T02:01:18.989Z,600.00
2023-05-17T02:02:18.995Z,601.00
2023-05-17T02:03:20.014Z,601.00
2023-05-17T02:04:19.070Z,600.00
2023-05-17T02:05:19.086Z,601.00
2023-05-17T02:06:18.974Z,601.00
2023-05-17T02:07:18.978Z,602.00
2023-05-17T02:08:18.958Z,600.00
2023-05-17T02:09:19.103Z,600.00
2023-05-17T02:10:18.980Z,601.00
2023-05-17T02:11:19.022Z,600.00
2023-05-17T02:12:18.965Z,600.00
2023-05-17T02:13:18.924Z,600.00
2023-05-17T02:14:19.023Z,604.00
2023-05-17T02:15:19.049Z,601.00
2023-05-17T02:16:18.970Z,601.00
2023-05-17T02:17:18.969Z,602.00
2023-05-17T02:18:19.014Z,601.00
2023-05-17T02:19:19.047Z,600.00
2023-05-17T02:20:18.938Z,602.00
2023-05-17T02:21:18.951Z,602.00
2023-05-17T02:22:18.954Z,600.00
2023-05-17T02:23:18.941Z,603.00
2023-05-17T02:24:18.941Z,603.00
2023-05-17T02:25:19.091Z,602.00
2023-05-17T02:26:18.933Z,602.00
2023-05-17T02:27:18.955Z,602.00
2023-05-17T02:28:18.955Z,602.00
2023-05-17T02:29:18.972Z,601.00
2023-05-17T02:30:18.932Z,600.00
2023-05-17T02:31:18.958Z,601.00
2023-05-17T02:32:18.959Z,602.00
2023-05-17T02:33:19.056Z,600.00
2023-05-17T02:34:18.904Z,600.00
2023-05-17T02:35:18.903Z,601.00
2023-05-17T02:36:18.943Z,600.00
2023-05-17T02:37:18.942Z,600.00
2023-05-17T02:38:18.913Z,602.00
2023-05-17T02:39:18.911Z,602.00
2023-05-17T02:40:18.916Z,600.00
2023-05-17T02:41:18.891Z,603.00
2023-05-17T02:42:18.913Z,603.00
2023-05-17T02:43:18.866Z,602.00
2023-05-17T02:44:18.895Z,603.00
2023-05-17T02:45:18.897Z,602.00
2023-05-17T02:46:18.851Z,602.00
2023-05-17T02:47:18.941Z,602.00
2023-05-17T02:48:18.909Z,603.00
2023-05-17T02:49:18.842Z,601.00
2023-05-17T02:50:18.844Z,602.00
2023-05-17T02:51:18.861Z,601.00
2023-05-17T02:52:18.867Z,600.00
2023-05-17T02:53:18.836Z,600.00
2023-05-17T02:54:18.827Z,602.00
2023-05-17T02:55:18.860Z,604.00
2023-05-17T02:56:18.815Z,603.00
2023-05-17T02:57:18.830Z,602.00
2023-05-17T02:58:18.821Z,604.00
2023-05-17T02:59:18.825Z,605.00
2023-05-17T03:00:18.878Z,600.00
2023-05-17T03:01:18.822Z,602.00
2023-05-17T03:02:18.912Z,600.00
2023-05-17T03:03:18.945Z,601.00
2023-05-17T03:04:19.578Z,600.00
2023-05-17T03:05:18.823Z,600.00
2023-05-17T03:06:18.833Z,603.00
2023-05-17T03:07:18.793Z,603.00
2023-05-17T03:08:18.802Z,600.00
2023-05-17T03:09:18.832Z,601.00
2023-05-17T03:10:18.802Z,602.00
2023-05-17T03:11:18.783Z,604.00
2023-05-17T03:12:18.761Z,601.00
2023-05-17T03:13:18.870Z,602.00
2023-05-17T03:14:18.815Z,602.00
2023-05-17T03:15:18.796Z,601.00
2023-05-17T03:16:18.776Z,600.00
2023-05-17T03:17:18.782Z,601.00
2023-05-17T03:18:18.855Z,600.00
2023-05-17T03:19:18.823Z,600.00
2023-05-17T03:20:18.802Z,601.00
2023-05-17T03:21:18.780Z,603.00
2023-05-17T03:22:18.768Z,602.00
2023-05-17T03:23:18.768Z,604.00
2023-05-17T03:24:18.777Z,601.00
2023-05-17T03:25:18.788Z,601.00
2023-05-17T03:26:18.745Z,604.00
2023-05-17T03:27:18.780Z,602.00
2023-05-17T03:28:18.781Z,603.00
2023-05-17T03:29:18.808Z,602.00
2023-05-17T03:30:18.756Z,601.00
2023-05-17T03:31:18.752Z,601.00
2023-05-17T03:32:18.732Z,602.00
2023-05-17T03:33:18.848Z,601.00
2023-05-17T03:34:18.698Z,600.00
2023-05-17T03:35:18.722Z,601.00
2023-05-17T03:36:18.711Z,602.00
2023-05-17T03:37:19.494Z,601.00
2023-05-17T03:38:18.701Z,601.00
2023-05-17T03:39:18.734Z,601.00
2023-05-17T03:40:18.722Z,600.00
2023-05-17T03:41:18.667Z,601.00
2023-05-17T03:42:18.688Z,601.00
2023-05-17T03:43:18.690Z,601.00
2023-05-17T03:44:18.649Z,601.00
2023-05-17T03:45:18.742Z,604.00
2023-05-17T03:46:18.673Z,602.00
2023-05-17T03:47:18.673Z,601.00
2023-05-17T03:48:18.684Z,604.00
2023-05-17T03:49:18.686Z,601.00
2023-05-17T03:50:18.670Z,602.00
2023-05-17T03:51:18.669Z,601.00
2023-05-17T03:52:18.687Z,600.00
2023-05-17T03:53:18.664Z,603.00
2023-05-17T03:54:18.664Z,601.00
2023-05-17T03:55:18.622Z,601.00
2023-05-17T03:56:18.628Z,604.00
2023-05-17T03:57:18.651Z,601.00
2023-05-17T03:58:18.664Z,603.00
2023-05-17T03:59:18.662Z,602.00
2023-05-17T04:00:18.671Z,602.00
2023-05-17T04:01:18.787Z,600.00
2023-05-17T04:02:18.686Z,604.00
2023-05-17T04:03:20.225Z,601.00
2023-05-17T04:04:18.744Z,601.00
2023-05-17T04:05:19.650Z,601.00
2023-05-17T04:06:18.646Z,600.00
2023-05-17T04:07:18.656Z,600.00
2023-05-17T04:08:18.660Z,604.00
2023-05-17T04:09:18.633Z,603.00
2023-05-17T04:10:18.637Z,602.00
2023-05-17T04:11:18.642Z,601.00
2023-05-17T04:12:18.639Z,603.00
2023-05-17T04:13:18.645Z,602.00
2023-05-17T04:14:18.634Z,600.00
2023-05-17T04:15:18.604Z,602.00
2023-05-17T04:16:18.628Z,600.00
2023-05-17T04:17:18.686Z,602.00
2023-05-17T04:18:18.640Z,602.00
2023-05-17T04:19:18.771Z,603.00
2023-05-17T04:20:18.602Z,603.00
2023-05-17T04:21:18.603Z,602.00
2023-05-17T04:22:18.596Z,602.00
2023-05-17T04:23:18.607Z,600.00
2023-05-17T04:24:18.626Z,602.00
2023-05-17T04:25:18.643Z,601.00
2023-05-17T04:26:18.596Z,601.00
2023-05-17T04:27:18.622Z,602.00
2023-05-17T04:28:18.603Z,603.00
2023-05-17T04:29:18.629Z,602.00
2023-05-17T04:30:18.612Z,602.00
2023-05-17T04:31:18.633Z,601.00
2023-05-17T04:32:18.588Z,602.00
2023-05-17T04:33:18.796Z,603.00
2023-05-17T04:34:18.605Z,601.00
2023-05-17T04:35:18.640Z,600.00
2023-05-17T04:36:18.627Z,602.00
2023-05-17T04:37:18.620Z,603.00
2023-05-17T04:38:18.596Z,600.00
2023-05-17T04:39:18.609Z,602.00
2023-05-17T04:40:18.677Z,602.00
2023-05-17T04:41:18.589Z,602.00
2023-05-17T04:42:18.601Z,602.00
2023-05-17T04:43:18.640Z,603.00
2023-05-17T04:44:18.586Z,604.00
2023-05-17T04:45:18.614Z,601.00
2023-05-17T04:46:18.604Z,600.00
2023-05-17T04:47:18.617Z,602.00
2023-05-17T04:48:18.721Z,602.00
2023-05-17T04:49:18.730Z,601.00
2023-05-17T04:50:18.622Z,603.00
2023-05-17T04:51:18.649Z,600.00
2023-05-17T04:52:18.630Z,600.00
2023-05-17T04:53:18.627Z,600.00
2023-05-17T04:54:18.641Z,600.00
2023-05-17T04:55:18.676Z,600.00
2023-05-17T04:56:18.675Z,600.00
2023-05-17T04:57:18.661Z,600.00
2023-05-17T04:58:18.696Z,601.00
2023-05-17T04:59:18.680Z,603.00
2023-05-17T05:00:18.688Z,603.00
2023-05-17T05:01:18.693Z,601.00
2023-05-17T05:02:18.716Z,600.00
2023-05-17T05:03:18.744Z,602.00
2023-05-17T05:04:18.778Z,600.00
2023-05-17T05:05:18.840Z,601.00
2023-05-17T05:06:18.765Z,602.00
2023-05-17T05:07:18.758Z,600.00
2023-05-17T05:08:18.790Z,601.00
2023-05-17T05:09:18.813Z,600.00
2023-05-17T05:10:18.781Z,600.00
2023-05-17T05:11:18.813Z,604.00
2023-05-17T05:12:18.923Z,601.00
2023-05-17T05:13:18.912Z,601.00
2023-05-17T05:14:18.853Z,604.00
2023-05-17T05:15:18.862Z,602.00
2023-05-17T05:16:18.888Z,602.00
2023-05-17T05:17:18.977Z,601.00
2023-05-17T05:18:19.015Z,600.00
2023-05-17T05:19:19.094Z,601.00
2023-05-17T05:20:18.971Z,601.00
2023-05-17T05:21:19.014Z,602.00
2023-05-17T05:22:18.967Z,600.00
2023-05-17T05:23:19.011Z,600.00
2023-05-17T05:24:19.005Z,602.00
2023-05-17T05:25:19.013Z,604.00
2023-05-17T05:26:19.053Z,600.00
2023-05-17T05:27:19.093Z,600.00
2023-05-17T05:28:19.061Z,601.00
2023-05-17T05:29:19.083Z,601.00
2023-05-17T05:30:19.124Z,602.00
2023-05-17T05:31:19.125Z,600.00
2023-05-17T05:32:19.185Z,600.00
2023-05-17T05:33:19.243Z,600.00
2023-05-17T05:34:19.155Z,601.00
2023-05-17T05:35:19.219Z,603.00
2023-05-17T05:36:19.243Z,604.00
2023-05-17T05:37:19.342Z,605.00
2023-05-17T05:38:19.262Z,607.00
2023-05-17T05:39:19.291Z,613.00
2023-05-17T05:40:19.322Z,618.00
2023-05-17T05:41:19.333Z,612.00
2023-05-17T05:42:19.382Z,614.00
2023-05-17T05:43:19.376Z,632.00
2023-05-17T05:44:19.419Z,643.00
2023-05-17T05:45:19.414Z,647.00
2023-05-17T05:46:19.463Z,652.00
2023-05-17T05:47:19.463Z,654.00
2023-05-17T05:48:19.592Z,653.00
2023-05-17T05:49:19.524Z,657.00
2023-05-17T05:50:19.522Z,660.00
2023-05-17T05:51:21.365Z,668.00
2023-05-17T05:52:19.522Z,680.00
2023-05-17T05:53:20.091Z,695.00
2023-05-17T05:54:19.519Z,722.00
2023-05-17T05:55:19.506Z,748.00
2023-05-17T05:56:19.496Z,769.00
2023-05-17T05:57:19.521Z,775.00
2023-05-17T05:58:19.501Z,807.00
2023-05-17T05:59:19.499Z,811.00
2023-05-17T06:00:19.473Z,823.00
2023-05-17T06:01:19.462Z,835.00
2023-05-17T06:02:19.462Z,849.00
2023-05-17T06:03:19.473Z,876.00
2023-05-17T06:04:21.056Z,887.00
2023-05-17T06:05:20.488Z,888.00
2023-05-17T06:06:19.673Z,893.00
2023-05-17T06:07:19.586Z,903.00
2023-05-17T06:08:19.457Z,890.00
2023-05-17T06:09:19.556Z,899.00
2023-05-17T06:10:19.463Z,916.00
2023-05-17T06:11:19.448Z,951.00
2023-05-17T06:12:19.389Z,982.00
2023-05-17T06:13:19.428Z,991.00
2023-05-17T06:14:19.426Z,1005.00
2023-05-17T06:15:19.484Z,1005.00
2023-05-17T06:16:19.601Z,1010.00
2023-05-17T06:17:19.612Z,1019.00
2023-05-17T06:18:19.766Z,1027.00
2023-05-17T06:19:19.790Z,1028.00
2023-05-17T06:20:19.779Z,1043.00
2023-05-17T06:21:19.848Z,1065.00
2023-05-17T06:22:19.879Z,1067.00
2023-05-17T06:23:19.957Z,1062.00
2023-05-17T06:24:19.990Z,1070.00
2023-05-17T06:25:20.119Z,1061.00
2023-05-17T06:26:20.083Z,1065.00
2023-05-17T06:27:20.145Z,1066.00
2023-05-17T06:28:20.183Z,1062.00
2023-05-17T06:29:20.208Z,1073.00
2023-05-17T06:30:20.258Z,1073.00
2023-05-17T06:31:21.209Z,1094.00
2023-05-17T06:32:20.360Z,1106.00
2023-05-17T06:33:20.651Z,1132.00
2023-05-17T06:34:20.424Z,1148.00
2023-05-17T06:35:20.527Z,1165.00
2023-05-17T06:36:20.572Z,1156.00
2023-05-17T06:37:20.540Z,1156.00
2023-05-17T06:38:20.553Z,1157.00
2023-05-17T06:39:20.500Z,1146.00
2023-05-17T06:40:20.508Z,1155.00
2023-05-17T06:41:20.580Z,1151.00
2023-05-17T06:42:20.484Z,1161.00
2023-05-17T06:43:20.476Z,1174.00
2023-05-17T06:44:20.495Z,1179.00
2023-05-17T06:45:20.500Z,1173.00
2023-05-17T06:46:20.469Z,1190.00
2023-05-17T06:47:20.512Z,1187.00
2023-05-17T06:48:20.665Z,1181.00
2023-05-17T06:49:20.613Z,1199.00
2023-05-17T06:50:20.675Z,1197.00
2023-05-17T06:51:20.736Z,1217.00
2023-05-17T06:52:20.756Z,1248.00
2023-05-17T06:53:20.886Z,1212.00
2023-05-17T06:54:20.906Z,1222.00
2023-05-17T06:55:20.937Z,1217.00
2023-05-17T06:56:20.984Z,1228.00
2023-05-17T06:57:21.119Z,1225.00
2023-05-17T06:58:21.148Z,1211.00
2023-05-17T06:59:21.186Z,1203.00
2023-05-17T07:00:21.255Z,1198.00
2023-05-17T07:01:21.382Z,1201.00
2023-05-17T07:02:21.347Z,1186.00
2023-05-17T07:03:21.469Z,1183.00
2023-05-17T07:04:21.569Z,1184.00
2023-05-17T07:05:21.676Z,1168.00
2023-05-17T07:06:21.570Z,1172.00
2023-05-17T07:07:21.600Z,1184.00
2023-05-17T07:08:21.645Z,1181.00
2023-05-17T07:09:21.680Z,1178.00
2023-05-17T07:10:21.728Z,1192.00
2023-05-17T07:11:21.788Z,1182.00
2023-05-17T07:12:21.860Z,1175.00
2023-05-17T07:13:22.041Z,1191.00
2023-05-17T07:14:21.976Z,1179.00
2023-05-17T07:15:22.033Z,1186.00
2023-05-17T07:16:22.089Z,1162.00
2023-05-17T07:17:22.145Z,1175.00
2023-05-17T07:18:22.300Z,1171.00
2023-05-17T07:19:22.408Z,1170.00
2023-05-17T07:20:22.343Z,1168.00
2023-05-17T07:21:22.422Z,1187.00
2023-05-17T07:22:22.460Z,1185.00
2023-05-17T07:23:22.521Z,1167.00
2023-05-17T07:24:22.574Z,1156.00
2023-05-17T07:25:22.634Z,1158.00
2023-05-17T07:26:22.672Z,1164.00
2023-05-17T07:27:22.706Z,1173.00
2023-05-17T07:28:22.810Z,1174.00
2023-05-17T07:29:22.940Z,1175.00
2023-05-17T07:30:22.887Z,1169.00
2023-05-17T07:31:22.944Z,1164.00
2023-05-17T07:32:23.116Z,1174.00
2023-05-17T07:33:23.074Z,1179.00
2023-05-17T07:34:23.107Z,1162.00
2023-05-17T07:35:23.110Z,1176.00
2023-05-17T07:36:23.270Z,1161.00
2023-05-17T07:37:23.189Z,1160.00
2023-05-17T07:38:23.253Z,1152.00
2023-05-17T07:39:23.293Z,1160.00
2023-05-17T07:40:23.336Z,1159.00
2023-05-17T07:41:23.385Z,1146.00
2023-05-17T07:42:23.466Z,1150.00
2023-05-17T07:43:23.506Z,1137.00
2023-05-17T07:44:23.566Z,1128.00
2023-05-17T07:45:23.702Z,1106.00
2023-05-17T07:46:23.665Z,1116.00
2023-05-17T07:47:23.785Z,1107.00
2023-05-17T07:48:23.942Z,1082.00
2023-05-17T07:49:23.925Z,1086.00
2023-05-17T07:50:23.870Z,1088.00
2023-05-17T07:51:23.893Z,1074.00
2023-05-17T07:52:23.895Z,1079.00
2023-05-17T07:53:23.899Z,1071.00
2023-05-17T07:54:23.921Z,1053.00
2023-05-17T07:55:23.976Z,1048.00
2023-05-17T07:56:23.933Z,1025.00
2023-05-17T07:57:23.933Z,1016.00
2023-05-17T07:58:23.931Z,1015.00
2023-05-17T07:59:23.933Z,1005.00
2023-05-17T08:00:24.028Z,990.00
2023-05-17T08:01:24.065Z,988.00
2023-05-17T08:02:24.070Z,981.00
2023-05-17T08:03:24.053Z,975.00
2023-05-17T08:04:24.457Z,957.00
2023-05-17T08:05:24.090Z,939.00
2023-05-17T08:06:24.170Z,937.00
2023-05-17T08:07:24.059Z,924.00
2023-05-17T08:08:24.638Z,920.00
2023-05-17T08:09:24.118Z,910.00
2023-05-17T08:10:24.065Z,903.00
2023-05-17T08:11:24.020Z,886.00
2023-05-17T08:12:24.048Z,878.00
2023-05-17T08:13:24.104Z,877.00
2023-05-17T08:14:25.669Z,867.00
2023-05-17T08:15:24.052Z,860.00
2023-05-17T08:16:24.019Z,860.00
2023-05-17T08:17:24.086Z,844.00
2023-05-17T08:18:24.123Z,844.00
2023-05-17T08:19:24.245Z,841.00
2023-05-17T08:20:24.162Z,834.00
2023-05-17T08:21:24.040Z,822.00
2023-05-17T08:22:24.097Z,810.00
2023-05-17T08:23:24.058Z,816.00
2023-05-17T08:24:24.069Z,801.00
2023-05-17T08:25:24.117Z,783.00
2023-05-17T08:26:24.079Z,788.00
2023-05-17T08:27:24.106Z,780.00
2023-05-17T08:28:24.103Z,771.00
2023-05-17T08:29:24.106Z,765.00
2023-05-17T08:31:24.148Z,765.00
2023-05-17T08:32:24.160Z,759.00
2023-05-17T08:33:24.819Z,749.00
2023-05-17T08:34:24.119Z,753.00
2023-05-17T08:35:27.703Z,741.00
2023-05-17T08:36:24.097Z,742.00
2023-05-17T08:37:24.125Z,736.00
2023-05-17T08:38:24.108Z,724.00
2023-05-17T08:39:24.074Z,720.00
2023-05-17T08:40:24.094Z,706.00
2023-05-17T08:41:24.044Z,709.00
2023-05-17T08:42:24.054Z,699.00
2023-05-17T08:43:25.971Z,701.00
2023-05-17T08:44:24.030Z,701.00
2023-05-17T08:45:24.013Z,694.00
2023-05-17T08:46:24.018Z,684.00
2023-05-17T08:47:24.056Z,676.00
2023-05-17T08:48:24.076Z,673.00
2023-05-17T08:49:24.007Z,682.00
2023-05-17T08:50:23.980Z,665.00
2023-05-17T08:51:23.976Z,664.00
2023-05-17T08:52:23.974Z,658.00
2023-05-17T08:53:24.016Z,655.00
2023-05-17T08:54:23.979Z,649.00
2023-05-17T08:55:23.965Z,646.00
2023-05-17T08:56:23.952Z,644.00
2023-05-17T08:57:23.921Z,639.00
2023-05-17T08:58:23.933Z,633.00
2023-05-17T08:59:23.903Z,626.00
2023-05-17T09:00:23.922Z,625.00
2023-05-17T09:01:25.523Z,627.00
2023-05-17T09:02:23.931Z,624.00
2023-05-17T09:03:24.069Z,622.00
2023-05-17T09:04:23.881Z,623.00
2023-05-17T09:05:23.884Z,622.00
2023-05-17T09:06:23.858Z,619.00
2023-05-17T09:07:23.874Z,622.00
2023-05-17T09:08:23.826Z,628.00
2023-05-17T09:09:23.830Z,634.00
2023-05-17T09:10:23.845Z,631.00
2023-05-17T09:11:23.842Z,627.00
2023-05-17T09:12:25.694Z,626.00
2023-05-17T09:13:23.806Z,626.00
2023-05-17T09:14:23.794Z,627.00
2023-05-17T09:15:23.787Z,628.00
2023-05-17T09:16:23.778Z,629.00
2023-05-17T09:17:23.822Z,629.00
2023-05-17T09:18:23.857Z,635.00
2023-05-17T09:19:23.868Z,635.00
2023-05-17T09:20:23.808Z,633.00
2023-05-17T09:21:23.762Z,633.00
2023-05-17T09:22:23.756Z,632.00
2023-05-17T09:23:23.743Z,639.00
2023-05-17T09:24:25.161Z,638.00
2023-05-17T09:25:23.721Z,636.00
2023-05-17T09:26:23.733Z,640.00
2023-05-17T09:27:23.752Z,644.00
2023-05-17T09:28:23.787Z,646.00
2023-05-17T09:29:23.816Z,648.00
2023-05-17T09:30:25.206Z,642.00
2023-05-17T09:31:23.869Z,645.00
2023-05-17T09:32:23.923Z,648.00
2023-05-17T09:33:23.920Z,653.00
2023-05-17T09:34:23.983Z,659.00
2023-05-17T09:35:24.025Z,720.00
2023-05-17T09:36:24.066Z,744.00
2023-05-17T09:37:24.081Z,763.00
2023-05-17T09:38:25.398Z,810.00
2023-05-17T09:39:24.176Z,823.00
2023-05-17T09:40:24.198Z,828.00
2023-05-17T09:41:24.330Z,854.00
2023-05-17T09:42:24.290Z,888.00
2023-05-17T09:43:24.288Z,876.00
2023-05-17T09:44:25.388Z,877.00
2023-05-17T09:45:24.365Z,885.00
2023-05-17T09:46:24.426Z,900.00
2023-05-17T09:47:24.542Z,882.00
2023-05-17T09:48:24.574Z,874.00
2023-05-17T09:49:24.560Z,878.00
2023-05-17T09:50:26.083Z,870.00
2023-05-17T09:51:24.607Z,856.00
2023-05-17T09:52:24.620Z,845.00
2023-05-17T09:53:24.689Z,832.00
2023-05-17T09:54:24.678Z,816.00
2023-05-17T09:55:24.730Z,802.00
2023-05-17T09:56:24.723Z,794.00
2023-05-17T09:57:24.760Z,786.00
2023-05-17T09:58:24.802Z,778.00
2023-05-17T09:59:24.801Z,771.00
2023-05-17T10:00:24.813Z,762.00
2023-05-17T10:01:24.818Z,762.00
2023-05-17T10:02:24.963Z,758.00
2023-05-17T10:03:24.989Z,757.00
2023-05-17T10:04:24.940Z,744.00
2023-05-17T10:05:25.042Z,734.00
2023-05-17T10:06:43.690Z,720.00
2023-05-17T10:07:25.970Z,720.00
2023-05-17T10:08:24.944Z,711.00
2023-05-17T10:09:25.018Z,711.00
2023-05-17T10:10:24.947Z,694.00
2023-05-17T10:11:24.938Z,695.00
2023-05-17T10:12:25.621Z,687.00
2023-05-17T10:13:24.913Z,684.00
2023-05-17T10:14:24.957Z,680.00
2023-05-17T10:15:24.966Z,669.00
2023-05-17T10:16:25.645Z,666.00
2023-05-17T10:17:24.948Z,664.00
2023-05-17T10:18:24.950Z,657.00
2023-05-17T10:19:24.938Z,651.00
2023-05-17T10:20:24.844Z,642.00
2023-05-17T10:21:24.847Z,641.00
2023-05-17T10:22:24.876Z,643.00
2023-05-17T10:23:24.848Z,643.00
2023-05-17T10:24:24.879Z,644.00
2023-05-17T10:25:24.874Z,642.00
2023-05-17T10:26:24.897Z,634.00
2023-05-17T10:27:24.937Z,630.00
2023-05-17T10:28:24.926Z,631.00
2023-05-17T10:29:24.987Z,628.00
2023-05-17T10:30:24.955Z,629.00
2023-05-17T10:31:25.018Z,630.00
2023-05-17T10:32:25.077Z,630.00
2023-05-17T10:33:25.168Z,629.00
2023-05-17T10:34:25.078Z,635.00
2023-05-17T10:35:25.138Z,634.00
2023-05-17T10:36:25.150Z,633.00
2023-05-17T10:37:25.161Z,652.00
2023-05-17T10:38:31.976Z,663.00
2023-05-17T10:39:26.158Z,664.00
2023-05-17T10:40:25.156Z,665.00
2023-05-17T10:41:25.184Z,678.00
2023-05-17T10:42:25.326Z,682.00
2023-05-17T10:43:25.181Z,681.00
2023-05-17T10:44:25.123Z,689.00
2023-05-17T10:45:25.132Z,680.00
2023-05-17T10:46:25.120Z,672.00
2023-05-17T10:47:25.136Z,675.00
2023-05-17T10:48:25.242Z,680.00
2023-05-17T10:49:25.122Z,682.00
2023-05-17T10:50:25.166Z,674.00
2023-05-17T10:51:25.191Z,673.00
2023-05-17T10:52:25.202Z,668.00
2023-05-17T10:53:25.277Z,667.00
2023-05-17T10:54:25.312Z,674.00
2023-05-17T10:55:25.343Z,666.00
2023-05-17T10:56:25.372Z,666.00
2023-05-17T10:57:26.544Z,664.00
2023-05-17T10:58:25.433Z,663.00
2023-05-17T10:59:25.494Z,662.00
2023-05-17T11:00:25.542Z,659.00
2023-05-17T11:01:25.587Z,661.00
2023-05-17T11:02:25.671Z,656.00
2023-05-17T11:03:25.654Z,657.00
2023-05-17T11:04:25.987Z,653.00
2023-05-17T11:05:25.837Z,654.00
2023-05-17T11:06:26.082Z,651.00
2023-05-17T11:07:25.801Z,652.00
2023-05-17T11:08:25.851Z,648.00
2023-05-17T11:09:25.872Z,646.00
2023-05-17T11:10:25.908Z,641.00
2023-05-17T11:11:25.961Z,639.00
2023-05-17T11:12:26.006Z,641.00
2023-05-17T11:13:26.066Z,634.00
2023-05-17T11:14:26.058Z,635.00
2023-05-17T11:15:26.169Z,639.00
2023-05-17T11:16:26.132Z,636.00
2023-05-17T11:17:26.197Z,631.00
2023-05-17T11:18:31.147Z,630.00
2023-05-17T11:19:27.283Z,630.00
2023-05-17T11:20:26.410Z,630.00
2023-05-17T11:21:26.223Z,628.00
2023-05-17T11:22:26.208Z,630.00
2023-05-17T11:23:26.161Z,625.00
2023-05-17T11:24:26.223Z,622.00
2023-05-17T11:25:26.157Z,620.00
2023-05-17T11:26:26.153Z,617.00
2023-05-17T11:27:26.128Z,629.00
2023-05-17T11:28:26.159Z,626.00
2023-05-17T11:29:26.147Z,622.00
2023-05-17T11:30:26.273Z,617.00
2023-05-17T11:31:26.101Z,627.00
2023-05-17T11:32:26.162Z,638.00
2023-05-17T11:33:33.553Z,658.00
2023-05-17T11:34:27.150Z,659.00
2023-05-17T11:35:26.103Z,660.00
2023-05-17T11:36:26.089Z,660.00
2023-05-17T11:37:26.100Z,663.00
2023-05-17T11:38:26.106Z,670.00
2023-05-17T11:39:26.073Z,675.00
2023-05-17T11:40:26.167Z,681.00
2023-05-17T11:41:27.290Z,693.00
2023-05-17T11:42:26.101Z,702.00
2023-05-17T11:43:26.058Z,701.00
2023-05-17T11:44:26.089Z,699.00
2023-05-17T11:45:26.165Z,697.00
2023-05-17T11:46:26.039Z,688.00
2023-05-17T11:47:26.101Z,688.00
2023-05-17T11:48:26.292Z,683.00
2023-05-17T11:49:35.083Z,689.00
2023-05-17T11:50:27.353Z,689.00
2023-05-17T11:51:26.049Z,681.00
2023-05-17T11:52:27.327Z,688.00
2023-05-17T11:53:26.085Z,685.00
2023-05-17T11:54:26.028Z,688.00
2023-05-17T11:55:26.026Z,677.00
2023-05-17T11:56:35.743Z,675.00
2023-05-17T11:57:26.991Z,676.00
2023-05-17T11:58:25.961Z,675.00
2023-05-17T11:59:25.959Z,665.00
2023-05-17T12:00:26.092Z,661.00
2023-05-17T12:01:25.978Z,661.00
2023-05-17T12:02:25.963Z,658.00
2023-05-17T12:03:25.957Z,654.00
2023-05-17T12:04:26.010Z,655.00
2023-05-17T12:05:25.918Z,646.00
2023-05-17T12:06:25.983Z,646.00
2023-05-17T12:07:25.913Z,641.00
2023-05-17T12:08:25.912Z,638.00
2023-05-17T12:09:25.917Z,634.00
2023-05-17T12:10:25.892Z,628.00
2023-05-17T12:11:25.946Z,626.00
2023-05-17T12:12:25.986Z,620.00
2023-05-17T12:13:26.027Z,619.00
2023-05-17T12:14:26.073Z,618.00
2023-05-17T12:15:26.100Z,617.00
2023-05-17T12:16:26.149Z,616.00
2023-05-17T12:17:26.210Z,613.00
2023-05-17T12:18:26.425Z,611.00
2023-05-17T12:19:26.378Z,612.00
2023-05-17T12:20:26.451Z,612.00
2023-05-17T12:21:26.311Z,611.00
2023-05-17T12:22:26.321Z,613.00
2023-05-17T12:23:26.363Z,613.00
2023-05-17T12:24:26.455Z,612.00
2023-05-17T12:25:26.429Z,615.00
2023-05-17T12:26:26.444Z,613.00